Time;durP1;ratioP1;P1;durP2;ratioP2;P2;SDS_P1;SDS_P2;PMS_P1;PMS_P2;Temp;Humidity;BMP_temperature;BMP_pressure;BME280_temperature;BME280_humidity;BME280_pressure;Samples;Min_cycle;Max_cycle;Signal;HPM_P1;HPM_P2
2020/12/18 00:00:10;;;;;;;;;;;;;;;9.82;100.00;99599.88;5060950;28;19969;-79
2020/12/18 00:02:37;;;;;;;;;;;;;;;9.79;100.00;99606.28;5098193;28;20373;-79
2020/12/18 00:05:03;;;;;;;;;;;;;;;9.78;100.00;99599.09;5079383;28;19924;-79
2020/12/18 00:07:30;;;;;;;;;;;;;;;9.79;100.00;99626.63;5079940;28;20010;-80
2020/12/18 00:09:56;;;;;;;;;;;;;;;9.81;100.00;99606.66;5079362;28;19974;-80
2020/12/18 00:12:23;;;;;;;;;;;;;;;9.84;100.00;99633.78;5079549;28;20359;-80
2020/12/18 00:14:49;;;;;;;;;;;;;;;9.87;100.00;99630.97;5097693;28;19978;-80
2020/12/18 00:17:16;;;;;;;;;;;;;;;9.82;100.00;99636.16;5079191;28;19928;-80
2020/12/18 00:19:42;;;;;;;;;;;;;;;9.78;100.00;99619.44;5046303;28;20039;-80
2020/12/18 00:22:08;;;;;;;;;;;;;;;9.78;100.00;99627.03;5057328;28;19931;-80
2020/12/18 00:24:35;;;;;;;;;;;;;;;9.82;100.00;99606.25;5056291;28;19925;-79
2020/12/18 00:27:02;;;;;;;;;;;;;;;9.88;100.00;99617.78;5039351;28;19929;-79
2020/12/18 00:29:28;;;;;;;;;;;;;;;9.91;100.00;99623.38;5055759;28;19932;-79
2020/12/18 00:31:55;;;;;;;;;;;;;;;9.86;100.00;99611.84;5055775;28;19925;-80
2020/12/18 00:34:21;;;;;;;;;;;;;;;9.89;100.00;99602.66;5055444;28;19925;-79
2020/12/18 00:36:52;;;;;;;;;;;;;;;9.87;100.00;99619.00;5056885;28;19970;-79
2020/12/18 00:39:18;;;;;;;;;;;;;;;9.90;100.00;99610.63;5055481;28;19925;-79
2020/12/18 00:41:50;;;;;;;;;;;;;;;9.84;100.00;99617.81;5039270;28;20330;-79
2020/12/18 00:44:16;;;;;;;;;;;;;;;9.96;100.00;99610.97;5055622;28;19932;-79
2020/12/18 00:46:43;;;;;;;;;;;;;;;9.94;100.00;99627.34;5055348;28;19964;-79
2020/12/18 00:49:10;;;;;;;;;;;;;;;10.00;100.00;99628.50;5055628;28;19956;-79
2020/12/18 00:51:37;;;;;;;;;;;;;;;10.04;100.00;99615.34;5055633;28;19994;-79
2020/12/18 00:54:03;;;;;;;;;;;;;;;10.05;100.00;99636.47;5055192;28;20467;-79
2020/12/18 00:56:30;;;;;;;;;;;;;;;10.05;100.00;99614.13;5055422;28;20312;-80
2020/12/18 00:58:57;;;;;;;;;;;;;;;10.04;100.00;99618.13;5038586;28;19929;-79
2020/12/18 01:01:23;;;;;;;;;;;;;;;10.05;100.00;99614.13;5054868;28;19931;-80
2020/12/18 01:03:50;;;;;;;;;;;;;;;9.97;100.00;99612.56;5038606;28;19978;-80
2020/12/18 01:06:18;;;;;;;;;;;;;;;9.98;100.00;99611.38;5038647;28;20264;-80
2020/12/18 01:08:57;;;;;;;;;;;;;;;10.01;100.00;99602.19;5055094;28;20431;-80
2020/12/18 01:11:29;;;;;;;;;;;;;;;10.01;100.00;99602.19;5038959;28;20298;-80
2020/12/18 01:13:55;;;;;;;;;;;;;;;9.99;100.00;99610.16;5054830;28;19925;-80
2020/12/18 01:16:22;;;;;;;;;;;;;;;10.03;100.00;99605.34;5054696;28;19925;-80
2020/12/18 01:18:56;;;;;;;;;;;;;;;10.04;100.00;99607.75;5056772;28;19947;-80
2020/12/18 01:21:24;;;;;;;;;;;;;;;10.08;100.00;99618.94;5054826;28;20013;-80
2020/12/18 01:23:51;;;;;;;;;;;;;;;10.09;100.00;99620.50;5054785;28;20011;-80
2020/12/18 01:26:18;;;;;;;;;;;;;;;10.06;100.00;99629.66;5054659;28;19983;-79
2020/12/18 01:28:45;;;;;;;;;;;;;;;10.08;100.00;99635.69;5038434;28;20348;-80
2020/12/18 01:31:11;;;;;;;;;;;;;;;10.10;100.00;99630.50;5055467;28;20455;-80
2020/12/18 01:33:38;;;;;;;;;;;;;;;10.13;100.00;99632.47;5054527;28;19932;-81
2020/12/18 01:36:14;;;;;;;;;;;;;;;10.14;100.00;99611.72;5038144;28;20355;-81
2020/12/18 01:38:43;;;;;;;;;;;;;;;10.16;100.00;99621.25;5038231;28;19931;-80
2020/12/18 01:41:09;;;;;;;;;;;;;;;10.07;100.00;99617.34;5037960;28;20299;-80
2020/12/18 01:43:37;;;;;;;;;;;;;;;10.12;100.00;99616.91;5054268;28;20494;-80
2020/12/18 01:46:08;;;;;;;;;;;;;;;10.17;100.00;99633.25;5037826;28;20322;-80
2020/12/18 01:48:35;;;;;;;;;;;;;;;10.18;100.00;99620.84;5055658;28;19978;-81
2020/12/18 01:51:09;;;;;;;;;;;;;;;10.15;100.00;99619.69;5055520;28;19932;-80
2020/12/18 01:53:39;;;;;;;;;;;;;;;10.16;100.00;99614.91;5054134;28;20034;-80
2020/12/18 01:56:15;;;;;;;;;;;;;;;10.21;100.00;99622.84;5054175;28;20394;-80
2020/12/18 01:58:48;;;;;;;;;;;;;;;10.24;100.00;99638.78;5054405;28;19924;-80
2020/12/18 02:01:23;;;;;;;;;;;;;;;10.27;100.00;99621.22;5037351;28;20283;-80
2020/12/18 02:04:10;;;;;;;;;;;;;;;10.21;100.00;99634.00;5054053;28;20362;-80
2020/12/18 02:06:47;;;;;;;;;;;;;;;10.26;100.00;99630.78;5053871;28;19940;-80
2020/12/18 02:09:19;;;;;;;;;;;;;;;10.26;100.00;99626.00;5037542;28;20375;-80
2020/12/18 02:11:49;;;;;;;;;;;;;;;10.26;100.00;99630.78;5037751;28;19931;-80
2020/12/18 02:14:18;;;;;;;;;;;;;;;10.23;100.00;99617.66;5053384;28;20385;-79
2020/12/18 02:16:49;;;;;;;;;;;;;;;10.23;100.00;99620.44;5038171;28;19932;-79
2020/12/18 02:19:27;;;;;;;;;;;;;;;10.28;100.00;99631.19;5036745;28;19925;-79
2020/12/18 02:22:10;;;;;;;;;;;;;;;10.36;100.00;99602.03;5037088;28;20501;-79
2020/12/18 02:24:38;;;;;;;;;;;;;;;10.35;100.00;99617.16;5052776;28;20287;-79
2020/12/18 02:27:04;;;;;;;;;;;;;;;10.35;100.00;99611.59;5053134;28;20291;-79
2020/12/18 02:29:32;;;;;;;;;;;;;;;10.39;100.00;99612.38;5052645;28;20011;-79
2020/12/18 02:32:08;;;;;;;;;;;;;;;10.34;100.00;99584.88;5055564;28;19987;-79
2020/12/18 02:34:39;;;;;;;;;;;;;;;10.40;100.00;99613.97;5059385;28;19925;-80
2020/12/18 02:37:14;;;;;;;;;;;;;;;10.42;100.00;99603.19;5059352;28;20363;-79
2020/12/18 02:39:40;;;;;;;;;;;;;;;10.45;100.00;99619.13;5059039;28;19925;-79
2020/12/18 02:42:14;;;;;;;;;;;;;;;10.46;100.00;99589.97;5059215;28;19931;-79
2020/12/18 02:44:47;;;;;;;;;;;;;;;10.42;100.00;99589.22;5054461;28;19936;-79
2020/12/18 02:47:42;;;;;;;;;;;;;;;10.39;100.00;99585.22;5052861;28;19925;-79
2020/12/18 02:50:22;;;;;;;;;;;;;;;10.40;100.00;99583.22;5053197;28;19975;-79
2020/12/18 02:52:52;;;;;;;;;;;;;;;10.50;100.00;99573.97;5037066;28;20011;-79
2020/12/18 02:55:51;;;;;;;;;;;;;;;10.55;100.00;99581.91;5053267;28;20380;-79
2020/12/18 02:58:30;;;;;;;;;;;;;;;10.58;100.00;99581.09;5036068;28;20381;-79
2020/12/18 03:00:58;;;;;;;;;;;;;;;10.55;100.00;99570.75;5052748;28;20033;-78
2020/12/18 03:03:25;;;;;;;;;;;;;;;10.58;100.00;99564.31;5052928;28;19967;-79
2020/12/18 03:06:06;;;;;;;;;;;;;;;10.59;100.00;99561.13;5036343;28;19929;-79
2020/12/18 03:08:42;;;;;;;;;;;;;;;10.58;100.00;99548.38;5052779;28;20019;-79
2020/12/18 03:11:08;;;;;;;;;;;;;;;10.59;100.00;99571.50;5054019;28;20372;-79
2020/12/18 03:13:35;;;;;;;;;;;;;;;10.59;100.00;99549.13;5053613;28;19931;-79
2020/12/18 03:16:02;;;;;;;;;;;;;;;10.64;100.00;99545.91;5036420;28;19931;-79
2020/12/18 03:18:44;;;;;;;;;;;;;;;10.67;100.00;99557.06;5057274;28;20024;-79
2020/12/18 03:21:13;;;;;;;;;;;;;;;10.66;100.00;99535.91;5076020;28;20471;-79
2020/12/18 03:24:02;;;;;;;;;;;;;;;10.70;100.00;99544.25;5093894;28;19930;-79
2020/12/18 03:26:43;;;;;;;;;;;;;;;10.67;100.00;99545.09;5058883;28;20341;-79
2020/12/18 03:29:18;;;;;;;;;;;;;;;10.68;100.00;99524.31;5076077;28;19931;-79
2020/12/18 03:31:45;;;;;;;;;;;;;;;10.72;100.00;99547.44;5059560;28;19924;-79
2020/12/18 03:34:12;;;;;;;;;;;;;;;10.73;100.00;99521.88;5059939;28;19951;-79
2020/12/18 03:36:48;;;;;;;;;;;;;;;10.70;100.00;99533.09;5080161;28;19982;-79
2020/12/18 03:39:14;;;;;;;;;;;;;;;10.70;100.00;99545.06;5079950;28;19925;-79
2020/12/18 03:42:07;;;;;;;;;;;;;;;10.66;100.00;99532.34;5079760;28;19928;-79
2020/12/18 03:44:34;;;;;;;;;;;;;;;10.67;100.00;99523.53;5079941;28;19924;-79
2020/12/18 03:47:00;;;;;;;;;;;;;;;10.70;100.00;99508.72;5080031;28;19924;-79
2020/12/18 03:49:40;;;;;;;;;;;;;;;10.66;100.00;99509.97;5079837;28;20332;-79
2020/12/18 03:52:06;;;;;;;;;;;;;;;10.72;100.00;99511.13;5080145;28;20322;-79
2020/12/18 03:54:39;;;;;;;;;;;;;;;10.71;100.00;99523.47;5064043;28;20282;-79
2020/12/18 03:57:24;;;;;;;;;;;;;;;10.77;100.00;99533.00;5079621;28;19948;-79
2020/12/18 04:00:09;;;;;;;;;;;;;;;10.73;100.00;99537.84;5097707;28;19924;-78
2020/12/18 04:02:54;;;;;;;;;;;;;;;10.75;100.00;99529.84;5079657;28;19931;-79
2020/12/18 04:05:23;;;;;;;;;;;;;;;10.76;100.00;99537.00;5079441;28;20433;-78
2020/12/18 04:07:52;;;;;;;;;;;;;;;10.73;100.00;99526.66;5062936;28;19959;-78
2020/12/18 04:10:37;;;;;;;;;;;;;;;10.67;100.00;99511.56;5081998;28;19928;-79
2020/12/18 04:13:42;;;;;;;;;;;;;;;10.71;100.00;99501.13;5034850;28;19932;-78
2020/12/18 04:16:11;;;;;;;;;;;;;;;10.75;100.00;99494.28;5018346;28;19979;-78
2020/12/18 04:18:38;;;;;;;;;;;;;;;10.73;100.00;99509.91;5034353;28;20015;-78
2020/12/18 04:21:08;;;;;;;;;;;;;;;10.74;100.00;99528.25;5018121;28;19933;-78
2020/12/18 04:23:42;;;;;;;;;;;;;;;10.76;100.00;99551.78;5019234;28;19925;-78
2020/12/18 04:26:27;;;;;;;;;;;;;;;10.76;100.00;99564.97;5017982;28;19929;-78
2020/12/18 04:28:54;;;;;;;;;;;;;;;10.79;100.00;99525.00;5018048;28;20007;-77
2020/12/18 04:31:22;;;;;;;;;;;;;;;10.79;100.00;99580.91;5017942;28;19929;-77
2020/12/18 04:33:50;;;;;;;;;;;;;;;10.77;100.00;99600.09;5017833;28;20003;-77
2020/12/18 04:36:22;;;;;;;;;;;;;;;10.82;100.00;99613.63;5034440;28;20256;-78
2020/12/18 04:38:49;;;;;;;;;;;;;;;10.85;100.00;99635.19;5018025;28;19932;-78
2020/12/18 04:41:30;;;;;;;;;;;;;;;10.85;100.00;99661.13;5017686;28;19965;-78
2020/12/18 04:44:02;;;;;;;;;;;;;;;10.79;100.00;99675.97;5035460;28;19924;-78
2020/12/18 04:46:41;;;;;;;;;;;;;;;10.82;100.00;99705.88;5061304;28;19924;-78
2020/12/18 04:49:09;;;;;;;;;;;;;;;10.85;100.00;99724.63;5062095;28;20331;-78
2020/12/18 04:51:42;;;;;;;;;;;;;;;10.85;100.00;99722.66;5078660;28;20351;-78
2020/12/18 04:54:20;;;;;;;;;;;;;;;10.81;100.00;99724.66;5061686;28;20007;-78
2020/12/18 04:56:55;;;;;;;;;;;;;;;10.81;100.00;99730.25;5061830;28;19931;-78
2020/12/18 04:59:26;;;;;;;;;;;;;;;10.81;100.00;99737.84;5061501;28;19946;-78
2020/12/18 05:02:12;;;;;;;;;;;;;;;10.84;100.00;99770.56;5064668;28;19924;-78
2020/12/18 05:04:43;;;;;;;;;;;;;;;10.81;100.00;99779.78;5078447;28;19924;-78
2020/12/18 05:07:30;;;;;;;;;;;;;;;10.83;100.00;99803.31;5077999;28;20026;-78
2020/12/18 05:09:57;;;;;;;;;;;;;;;10.84;100.00;99816.09;5077893;28;20127;-78
2020/12/18 05:12:42;;;;;;;;;;;;;;;10.86;100.00;99816.47;5078259;28;19924;-78
2020/12/18 05:15:12;;;;;;;;;;;;;;;10.84;100.00;99824.47;5078355;28;19930;-78
2020/12/18 05:17:59;;;;;;;;;;;;;;;10.90;100.00;99864.00;5078045;28;20393;-78
2020/12/18 05:20:29;;;;;;;;;;;;;;;10.87;100.00;99868.38;5078110;28;19924;-78
2020/12/18 05:23:18;;;;;;;;;;;;;;;10.83;100.00;99876.00;5077308;28;19927;-78
2020/12/18 05:26:17;;;;;;;;;;;;;;;10.85;100.00;99864.41;5068206;28;20370;-78
2020/12/18 05:28:49;;;;;;;;;;;;;;;10.84;100.00;99869.22;5078213;28;19924;-78
2020/12/18 05:31:19;;;;;;;;;;;;;;;10.87;100.00;99845.25;5095999;28;19969;-78
2020/12/18 05:34:14;;;;;;;;;;;;;;;10.85;100.00;99881.19;5065296;28;19928;-78
2020/12/18 05:36:49;;;;;;;;;;;;;;;10.90;100.00;99861.97;5077877;28;20014;-78
2020/12/18 05:39:26;;;;;;;;;;;;;;;10.88;100.00;99885.97;5077648;28;19931;-78
2020/12/18 05:42:01;;;;;;;;;;;;;;;10.85;100.00;99870.00;5044696;28;19949;-78
2020/12/18 05:44:34;;;;;;;;;;;;;;;10.86;100.00;99889.19;5077811;28;20057;-78
2020/12/18 05:47:22;;;;;;;;;;;;;;;10.83;100.00;99900.38;5077598;28;19924;-78
2020/12/18 05:49:49;;;;;;;;;;;;;;;10.90;100.00;99928.31;5077605;28;19947;-78
2020/12/18 05:52:24;;;;;;;;;;;;;;;10.86;100.00;99910.75;5077239;28;19944;-78
2020/12/18 05:55:13;;;;;;;;;;;;;;;10.85;100.00;99917.53;5095379;28;19931;-78
2020/12/18 05:58:04;;;;;;;;;;;;;;;10.84;100.00;99899.19;5094356;28;19924;-79
2020/12/18 06:00:46;;;;;;;;;;;;;;;10.85;99.92;99920.34;5077344;28;20335;-78
2020/12/18 06:03:35;;;;;;;;;;;;;;;10.87;99.07;99934.72;5080773;28;19930;-78
2020/12/18 06:06:10;;;;;;;;;;;;;;;10.87;98.62;99934.72;5077102;28;19970;-78
2020/12/18 06:08:39;;;;;;;;;;;;;;;10.89;98.21;99912.72;5077376;28;20003;-78
2020/12/18 06:11:13;;;;;;;;;;;;;;;10.90;97.70;99936.69;5077044;28;19932;-78
2020/12/18 06:13:50;;;;;;;;;;;;;;;10.88;97.60;99925.13;5077203;28;19928;-78
2020/12/18 06:16:45;;;;;;;;;;;;;;;10.87;97.46;99934.72;5092067;28;19969;-78
2020/12/18 06:19:21;;;;;;;;;;;;;;;10.90;96.78;99917.91;5076904;28;19924;-78
2020/12/18 06:21:53;;;;;;;;;;;;;;;10.88;96.60;99919.53;5061033;28;19932;-78
2020/12/18 06:24:50;;;;;;;;;;;;;;;10.95;95.31;99897.13;5095173;28;19946;-78
2020/12/18 06:27:43;;;;;;;;;;;;;;;10.95;94.81;99877.53;5091889;28;20338;-78
2020/12/18 06:30:17;;;;;;;;;;;;;;;10.94;94.78;99861.97;5076949;28;20027;-78
2020/12/18 06:33:03;;;;;;;;;;;;;;;10.89;95.22;99865.19;5094918;28;20416;-78
2020/12/18 06:35:47;;;;;;;;;;;;;;;10.96;93.84;99854.00;5094707;28;19924;-78
2020/12/18 06:38:32;;;;;;;;;;;;;;;10.91;93.93;99851.59;5094755;28;19924;-78
2020/12/18 06:41:23;;;;;;;;;;;;;;;10.93;93.68;99843.63;5078495;28;20367;-78
2020/12/18 06:44:27;;;;;;;;;;;;;;;10.90;93.68;99842.41;5076633;28;20026;-78
2020/12/18 06:47:05;;;;;;;;;;;;;;;10.85;94.06;99834.47;5076553;28;19924;-79
2020/12/18 06:49:59;;;;;;;;;;;;;;;10.95;92.60;99811.25;5078227;28;20280;-79
2020/12/18 06:52:54;;;;;;;;;;;;;;;10.98;92.07;99800.44;5079411;28;19924;-77
2020/12/18 06:55:27;;;;;;;;;;;;;;;11.01;91.59;99794.03;5070332;28;20015;-77
2020/12/18 06:58:15;;;;;;;;;;;;;;;10.92;92.46;99784.09;5110324;28;19935;-76
2020/12/18 07:00:47;;;;;;;;;;;;;;;10.94;92.19;99756.53;5108467;28;19924;-76
2020/12/18 07:03:32;;;;;;;;;;;;;;;11.02;91.47;99745.28;5110390;28;19946;-76
2020/12/18 07:06:02;;;;;;;;;;;;;;;10.96;92.22;99742.91;5091946;28;19924;-76
2020/12/18 07:08:31;;;;;;;;;;;;;;;10.97;92.22;99738.13;5109075;28;19924;-76
2020/12/18 07:11:02;;;;;;;;;;;;;;;10.96;92.18;99647.84;5110354;28;20435;-76
2020/12/18 07:13:30;;;;;;;;;;;;;;;10.90;92.74;99643.13;5110380;28;19924;-76
2020/12/18 07:15:57;;;;;;;;;;;;;;;10.90;92.49;99659.91;5125928;27;20267;-76
2020/12/18 07:18:25;;;;;;;;;;;;;;;10.96;91.84;99638.69;5109919;28;19924;-77
2020/12/18 07:20:54;;;;;;;;;;;;;;;10.95;91.47;99635.09;5089036;28;21591;-77
2020/12/18 07:23:21;;;;;;;;;;;;;;;10.90;91.81;99640.34;5071498;28;20019;-76
2020/12/18 07:25:48;;;;;;;;;;;;;;;10.97;90.76;99634.66;5089041;28;20026;-75
2020/12/18 07:28:15;;;;;;;;;;;;;;;10.98;90.66;99627.88;5089791;28;19924;-76
2020/12/18 07:30:43;;;;;;;;;;;;;;;10.95;90.79;99623.09;5089285;28;19924;-76
2020/12/18 07:33:10;;;;;;;;;;;;;;;10.96;90.41;99636.66;5089821;28;20280;-76
2020/12/18 07:35:44;;;;;;;;;;;;;;;10.92;90.63;99652.69;5089725;28;19928;-76
2020/12/18 07:38:14;;;;;;;;;;;;;;;10.99;89.73;99651.84;5089555;28;19924;-75
2020/12/18 07:40:41;;;;;;;;;;;;;;;10.98;89.28;99634.25;5087872;28;20340;-75
2020/12/18 07:43:09;;;;;;;;;;;;;;;10.94;89.61;99639.09;5092089;28;19928;-78
2020/12/18 07:45:36;;;;;;;;;;;;;;;10.94;89.17;99627.91;5076987;28;20039;-77
2020/12/18 07:48:08;;;;;;;;;;;;;;;10.91;89.28;99633.53;5068057;28;19931;-77
2020/12/18 07:50:34;;;;;;;;;;;;;;;10.89;89.18;99635.94;5067012;28;19928;-76
2020/12/18 07:53:10;;;;;;;;;;;;;;;10.91;88.48;99623.16;5065542;28;19925;-77
2020/12/18 07:55:37;;;;;;;;;;;;;;;10.98;87.70;99644.63;5064550;28;19939;-77
2020/12/18 07:58:04;;;;;;;;;;;;;;;10.98;87.39;99633.44;5069487;28;19952;-77
2020/12/18 08:00:30;;;;;;;;;;;;;;;11.02;86.67;99613.84;5072308;28;20039;-77
2020/12/18 08:02:57;;;;;;;;;;;;;;;11.04;86.24;99648.63;5040993;28;19963;-79
2020/12/18 08:05:24;;;;;;;;;;;;;;;11.03;86.28;99638.63;5073259;28;19931;-79
2020/12/18 08:07:56;;;;;;;;;;;;;;;11.13;85.39;99646.13;5069783;28;19932;-82
2020/12/18 08:10:23;;;;;;;;;;;;;;;11.15;85.27;99642.91;5057381;28;19928;-81
2020/12/18 08:12:50;;;;;;;;;;;;;;;11.08;86.00;99638.19;5088777;28;19924;-82
2020/12/18 08:15:17;;;;;;;;;;;;;;;11.11;86.09;99620.56;5078514;28;19924;-82
2020/12/18 08:17:45;;;;;;;;;;;;;;;11.06;86.66;99612.63;5072059;28;19925;-83
2020/12/18 08:20:14;;;;;;;;;;;;;;;11.13;86.21;99612.56;5050729;28;19951;-82
2020/12/18 08:22:54;;;;;;;;;;;;;;;11.21;85.68;99599.31;5041699;28;20409;-81
2020/12/18 08:25:30;;;;;;;;;;;;;;;11.20;86.20;99590.13;5076351;28;19978;-82
2020/12/18 08:28:42;;;;;;;;;;;;;;;11.16;87.58;99600.56;5067637;28;19978;-83
2020/12/18 08:31:10;;;;;;;;;;;;;;;11.19;87.78;99610.09;5092140;28;19924;-77
2020/12/18 08:33:45;;;;;;;;;;;;;;;11.21;88.00;99588.91;5075516;28;19925;-77
2020/12/18 08:36:12;;;;;;;;;;;;;;;11.31;87.54;99585.22;5075488;28;19928;-77
2020/12/18 08:38:39;;;;;;;;;;;;;;;11.21;88.95;99597.28;5076510;28;19990;-77
2020/12/18 08:41:05;;;;;;;;;;;;;;;11.22;89.47;99592.50;5076595;28;19924;-77
2020/12/18 08:43:32;;;;;;;;;;;;;;;11.26;89.37;99608.03;5076591;28;19932;-77
2020/12/18 08:45:58;;;;;;;;;;;;;;;11.29;89.68;99610.00;5076149;28;19928;-78
2020/12/18 08:48:26;;;;;;;;;;;;;;;11.21;90.92;99613.28;5057841;28;19931;-78
2020/12/18 08:51:00;;;;;;;;;;;;;;;11.25;91.10;99631.63;5056581;28;19948;-79
2020/12/18 08:53:32;;;;;;;;;;;;;;;11.32;91.19;99630.75;5056159;28;19931;-77
2020/12/18 08:56:01;;;;;;;;;;;;;;;11.32;91.82;99631.56;5039130;28;19925;-78
2020/12/18 08:58:27;;;;;;;;;;;;;;;11.31;92.61;99643.97;5056191;28;19925;-79
2020/12/18 09:01:20;;;;;;;;;;;;;;;11.38;92.94;99645.88;5055903;28;19929;-79
2020/12/18 09:03:46;;;;;;;;;;;;;;;11.35;94.38;99638.31;5056294;28;19960;-79
2020/12/18 09:06:13;;;;;;;;;;;;;;;11.43;94.88;99637.84;5056187;28;19925;-77
2020/12/18 09:08:40;;;;;;;;;;;;;;;11.46;96.25;99641.81;5054723;28;19951;-77
2020/12/18 09:11:07;;;;;;;;;;;;;;;11.43;98.39;99648.22;5055951;28;19925;-77
2020/12/18 09:13:36;;;;;;;;;;;;;;;11.47;100.00;99627.41;5054713;28;20308;-81
2020/12/18 09:16:07;;;;;;;;;;;;;;;11.53;100.00;99650.13;5037765;28;19928;-77
2020/12/18 09:18:37;;;;;;;;;;;;;;;11.52;100.00;99654.94;5039375;28;20376;-78
2020/12/18 09:21:09;;;;;;;;;;;;;;;11.56;100.00;99652.06;5061228;28;19954;-77
2020/12/18 09:23:36;;;;;;;;;;;;;;;11.47;100.00;99663.78;5096050;28;19924;-78
2020/12/18 09:26:09;;;;;;;;;;;;;;;11.47;100.00;99666.56;5095988;28;19924;-78
2020/12/18 09:28:37;;;;;;;;;;;;;;;11.49;100.00;99683.75;5077606;28;20333;-78
2020/12/18 09:31:05;;;;;;;;;;;;;;;11.44;100.00;99694.59;5095534;28;19925;-78
2020/12/18 09:33:36;;;;;;;;;;;;;;;11.54;100.00;99725.25;5095593;28;19923;-78
2020/12/18 09:36:07;;;;;;;;;;;;;;;11.47;100.00;99752.53;5077673;28;19947;-77
2020/12/18 09:38:35;;;;;;;;;;;;;;;11.49;100.00;99778.91;5095568;28;20255;-78
2020/12/18 09:41:04;;;;;;;;;;;;;;;11.49;100.00;99790.09;5077295;28;20378;-78
2020/12/18 09:43:30;;;;;;;;;;;;;;;11.48;100.00;99813.66;5095124;28;19930;-78
2020/12/18 09:45:57;;;;;;;;;;;;;;;11.56;100.00;99803.22;5077150;28;20028;-77
2020/12/18 09:48:25;;;;;;;;;;;;;;;11.55;100.00;99816.44;5094763;28;20441;-77
2020/12/18 09:50:55;;;;;;;;;;;;;;;11.56;100.00;99832.00;5077308;28;19924;-77
2020/12/18 09:53:25;;;;;;;;;;;;;;;11.60;100.00;99843.19;5095769;28;20359;-77
2020/12/18 09:55:52;;;;;;;;;;;;;;;11.58;100.00;99846.41;5095548;28;19947;-77
2020/12/18 09:58:20;;;;;;;;;;;;;;;11.57;100.00;99827.22;5095503;28;19950;-76
2020/12/18 10:00:47;;;;;;;;;;;;;;;11.53;100.00;99776.06;5095696;28;20289;-76
2020/12/18 10:03:14;;;;;;;;;;;;;;;11.54;100.00;99739.25;5096985;28;20382;-77
2020/12/18 10:05:40;;;;;;;;;;;;;;;11.55;100.00;99698.88;5095475;28;19924;-77
2020/12/18 10:08:07;;;;;;;;;;;;;;;11.59;100.00;99674.44;5077154;28;19924;-77
2020/12/18 10:10:33;;;;;;;;;;;;;;;11.59;100.00;99645.66;5077423;28;19928;-77
2020/12/18 10:12:59;;;;;;;;;;;;;;;11.62;100.00;99612.06;5060480;28;20083;-77
2020/12/18 10:15:26;;;;;;;;;;;;;;;11.63;100.00;99580.06;5076969;28;19928;-77
2020/12/18 10:17:53;;;;;;;;;;;;;;;11.63;100.00;99549.25;5094759;28;19931;-77
2020/12/18 10:20:19;;;;;;;;;;;;;;;11.55;100.00;99528.16;5094624;28;19931;-77
2020/12/18 10:22:46;;;;;;;;;;;;;;;11.55;100.00;99514.16;5076510;28;19931;-77
2020/12/18 10:25:13;;;;;;;;;;;;;;;11.59;100.00;99489.72;5094648;28;19924;-78
2020/12/18 10:27:40;;;;;;;;;;;;;;;11.50;100.00;99475.44;5084386;28;19923;-78
2020/12/18 10:30:07;;;;;;;;;;;;;;;11.56;100.00;99468.16;5079453;28;19924;-78
2020/12/18 10:32:34;;;;;;;;;;;;;;;11.54;100.00;99439.81;5059909;28;19924;-79
2020/12/18 10:35:00;;;;;;;;;;;;;;;11.53;100.00;99435.44;5076559;28;19931;-78
2020/12/18 10:37:27;;;;;;;;;;;;;;;11.54;100.00;99437.00;5094543;28;19931;-79
2020/12/18 10:39:54;;;;;;;;;;;;;;;11.55;100.00;99407.81;5094359;28;19924;-78
2020/12/18 10:42:20;;;;;;;;;;;;;;;11.57;100.00;99394.19;5104426;28;19931;-78
2020/12/18 10:44:47;;;;;;;;;;;;;;;11.57;100.00;99385.78;5114070;28;19924;-78
2020/12/18 10:47:13;;;;;;;;;;;;;;;11.56;100.00;99384.22;5114653;28;20397;-78
2020/12/18 10:49:40;;;;;;;;;;;;;;;11.55;100.00;99379.84;5101437;28;19931;-78
2020/12/18 10:52:06;;;;;;;;;;;;;;;11.46;100.00;99396.38;5092803;28;19947;-78
2020/12/18 10:54:33;;;;;;;;;;;;;;;11.38;100.00;99378.09;5093861;28;20385;-79
2020/12/18 10:57:06;;;;;;;;;;;;;;;11.45;100.00;99340.81;5108439;28;19924;-79
2020/12/18 10:59:33;;;;;;;;;;;;;;;11.48;100.00;99348.38;5114606;28;19989;-78
2020/12/18 11:02:00;;;;;;;;;;;;;;;11.48;100.00;99343.56;5107812;28;19924;-79
2020/12/18 11:04:27;;;;;;;;;;;;;;;11.37;100.00;99319.75;5090935;28;19932;-79
2020/12/18 11:06:54;;;;;;;;;;;;;;;11.47;100.00;99324.38;5122464;27;19928;-78
2020/12/18 11:09:23;;;;;;;;;;;;;;;11.53;100.00;99326.28;5086488;28;19924;-79
2020/12/18 11:11:51;;;;;;;;;;;;;;;11.53;100.00;99289.91;5089135;28;19924;-78
2020/12/18 11:14:18;;;;;;;;;;;;;;;11.44;100.00;99320.44;5089911;28;19931;-79
2020/12/18 11:16:45;;;;;;;;;;;;;;;11.37;100.00;99337.34;5071490;28;20425;-79
2020/12/18 11:19:11;;;;;;;;;;;;;;;11.42;100.00;99322.09;5072440;28;20019;-78
2020/12/18 11:21:43;;;;;;;;;;;;;;;11.41;100.00;99335.28;5122393;27;19924;-79
2020/12/18 11:24:10;;;;;;;;;;;;;;;11.44;100.00;99342.81;5089458;28;19924;-77
2020/12/18 11:26:37;;;;;;;;;;;;;;;11.44;100.00;99361.59;5091298;28;19924;-78
2020/12/18 11:29:04;;;;;;;;;;;;;;;11.38;100.00;99366.91;5093361;28;19949;-78
2020/12/18 11:31:31;;;;;;;;;;;;;;;11.46;100.00;99361.97;5092742;28;19928;-78
2020/12/18 11:33:58;;;;;;;;;;;;;;;11.50;100.00;99373.91;5076036;28;19924;-78
2020/12/18 11:36:24;;;;;;;;;;;;;;;11.52;100.00;99386.28;5093908;28;19952;-78
2020/12/18 11:38:54;;;;;;;;;;;;;;;11.53;100.00;99401.84;5092512;28;19924;-78
2020/12/18 11:41:21;;;;;;;;;;;;;;;11.52;100.00;99394.69;5092147;28;20351;-79
2020/12/18 11:43:48;;;;;;;;;;;;;;;11.53;100.00;99385.06;5092886;28;19932;-78
2020/12/18 11:46:15;;;;;;;;;;;;;;;11.46;100.00;99393.56;5093758;27;19931;-77
2020/12/18 11:48:41;;;;;;;;;;;;;;;11.43;100.00;99396.41;5093802;28;19932;-77
2020/12/18 11:51:09;;;;;;;;;;;;;;;11.43;100.00;99393.59;5093710;27;19942;-78
2020/12/18 11:53:36;;;;;;;;;;;;;;;11.44;100.00;99404.38;5092584;28;19925;-77
2020/12/18 11:56:03;;;;;;;;;;;;;;;11.37;100.00;99392.50;5095404;28;19928;-78
2020/12/18 11:58:30;;;;;;;;;;;;;;;11.38;100.00;99389.28;5096546;28;19927;-77
2020/12/18 12:00:57;;;;;;;;;;;;;;;11.32;100.00;99385.38;5096434;28;20469;-77
2020/12/18 12:03:24;;;;;;;;;;;;;;;11.40;100.00;99384.06;5096502;28;19924;-77
2020/12/18 12:05:50;;;;;;;;;;;;;;;11.41;100.00;99388.44;5096268;28;20354;-77
2020/12/18 12:08:17;;;;;;;;;;;;;;;11.42;100.00;99376.03;5097410;28;19924;-77
2020/12/18 12:10:43;;;;;;;;;;;;;;;11.50;100.00;99391.50;5097584;27;20293;-77
2020/12/18 12:13:10;;;;;;;;;;;;;;;11.50;100.00;99388.69;5090388;28;19924;-77
2020/12/18 12:15:36;;;;;;;;;;;;;;;11.44;100.00;99372.78;5072115;28;20374;-75
2020/12/18 12:18:03;;;;;;;;;;;;;;;11.43;100.00;99391.63;5109021;28;19924;-74
2020/12/18 12:20:29;;;;;;;;;;;;;;;11.42;100.00;99400.44;5045315;28;20014;-74
2020/12/18 12:22:56;;;;;;;;;;;;;;;11.39;100.00;99396.44;5087296;28;20041;-74
2020/12/18 12:25:22;;;;;;;;;;;;;;;11.42;100.00;99401.19;5094059;28;19944;-74
2020/12/18 12:27:58;;;;;;;;;;;;;;;11.38;100.00;99380.06;5112617;28;19930;-76
2020/12/18 12:30:25;;;;;;;;;;;;;;;11.38;100.00;99389.28;5078002;28;20022;-75
2020/12/18 12:32:54;;;;;;;;;;;;;;;11.40;100.00;99370.06;5095340;28;19930;-76
2020/12/18 12:35:26;;;;;;;;;;;;;;;11.49;100.00;99400.31;5077539;28;19928;-75
2020/12/18 12:37:53;;;;;;;;;;;;;;;11.56;100.00;99422.59;5112646;28;19924;-75
2020/12/18 12:40:19;;;;;;;;;;;;;;;11.57;100.00;99366.19;5095373;28;19930;-75
2020/12/18 12:42:46;;;;;;;;;;;;;;;11.64;100.00;99376.53;5113584;28;20821;-75
2020/12/18 12:45:12;;;;;;;;;;;;;;;11.60;100.00;99362.56;5077343;28;20014;-74
2020/12/18 12:47:39;;;;;;;;;;;;;;;11.62;100.00;99376.97;5113221;28;19928;-75
2020/12/18 12:50:06;;;;;;;;;;;;;;;11.67;100.00;99368.09;5112895;28;20614;-75
2020/12/18 12:52:32;;;;;;;;;;;;;;;11.63;100.00;99367.34;5112504;28;19924;-74
2020/12/18 12:54:59;;;;;;;;;;;;;;;11.58;100.00;99384.59;5092509;28;19924;-75
2020/12/18 12:57:25;;;;;;;;;;;;;;;11.70;100.00;99381.25;5092056;28;19951;-75
2020/12/18 12:59:52;;;;;;;;;;;;;;;11.60;100.00;99370.19;5091697;28;19924;-76
2020/12/18 13:02:18;;;;;;;;;;;;;;;11.65;100.00;99376.09;5125507;27;19931;-77